sensor_id;sensor_type;location;lat;lon;timestamp;pressure;altitude;pressure_sealevel;temperature;humidity
13968;BME280;39536;52.198;9.920;2023-12-14T00:01:12;99823.09;;;6.91;100.00
13968;BME280;39536;52.198;9.920;2023-12-14T00:03:39;99819.97;;;6.80;100.00
13968;BME280;39536;52.198;9.920;2023-12-14T00:06:09;99822.19;;;6.62;100.00
13968;BME280;39536;52.198;9.920;2023-12-14T00:08:35;99834.91;;;6.70;100.00
13968;BME280;39536;52.198;9.920;2023-12-14T00:11:04;99838.59;;;6.61;100.00
13968;BME280;39536;52.198;9.920;2023-12-14T00:13:30;99841.53;;;6.49;100.00
13968;BME280;39536;52.198;9.920;2023-12-14T00:15:57;99841.47;;;6.51;100.00
13968;BME280;39536;52.198;9.920;2023-12-14T00:18:23;99844.66;;;6.60;100.00
13968;BME280;39536;52.198;9.920;2023-12-14T00:20:50;99840.63;;;6.50;100.00
13968;BME280;39536;52.198;9.920;2023-12-14T00:23:18;99851.28;;;6.39;100.00
13968;BME280;39536;52.198;9.920;2023-12-14T00:25:44;99853.63;;;6.48;100.00
13968;BME280;39536;52.198;9.920;2023-12-14T00:28:11;99854.97;;;6.62;100.00
13968;BME280;39536;52.198;9.920;2023-12-14T00:30:37;99865.31;;;6.62;100.00
13968;BME280;39536;52.198;9.920;2023-12-14T00:33:04;99868.84;;;6.59;100.00
13968;BME280;39536;52.198;9.920;2023-12-14T00:35:31;99873.50;;;6.46;100.00
13968;BME280;39536;52.198;9.920;2023-12-14T00:37:57;99876.16;;;6.11;100.00
13968;BME280;39536;52.198;9.920;2023-12-14T00:40:25;99881.56;;;6.01;100.00
13968;BME280;39536;52.198;9.920;2023-12-14T00:42:52;99880.03;;;5.91;100.00
13968;BME280;39536;52.198;9.920;2023-12-14T00:45:18;99891.91;;;6.00;100.00
13968;BME280;39536;52.198;9.920;2023-12-14T00:47:45;99893.75;;;5.95;100.00
13968;BME280;39536;52.198;9.920;2023-12-14T00:50:11;99897.28;;;5.91;100.00
13968;BME280;39536;52.198;9.920;2023-12-14T00:52:38;99904.31;;;5.86;100.00
13968;BME280;39536;52.198;9.920;2023-12-14T00:55:05;99912.09;;;5.84;100.00
13968;BME280;39536;52.198;9.920;2023-12-14T00:57:33;99919.00;;;5.84;100.00
13968;BME280;39536;52.198;9.920;2023-12-14T00:59:59;99924.00;;;5.90;100.00
13968;BME280;39536;52.198;9.920;2023-12-14T01:02:26;99934.19;;;5.99;100.00
13968;BME280;39536;52.198;9.920;2023-12-14T01:04:52;99938.44;;;6.01;100.00
13968;BME280;39536;52.198;9.920;2023-12-14T01:07:19;99935.84;;;6.01;100.00
13968;BME280;39536;52.198;9.920;2023-12-14T01:09:45;99946.91;;;6.07;100.00
13968;BME280;39536;52.198;9.920;2023-12-14T01:12:12;99942.50;;;6.10;100.00
13968;BME280;39536;52.198;9.920;2023-12-14T01:14:40;99948.50;;;6.12;100.00
13968;BME280;39536;52.198;9.920;2023-12-14T01:17:06;99955.38;;;6.13;100.00
13968;BME280;39536;52.198;9.920;2023-12-14T01:19:33;99955.19;;;6.21;100.00
13968;BME280;39536;52.198;9.920;2023-12-14T01:21:59;99964.56;;;6.27;100.00
13968;BME280;39536;52.198;9.920;2023-12-14T01:24:26;99968.75;;;6.31;100.00
13968;BME280;39536;52.198;9.920;2023-12-14T01:26:52;99974.53;;;6.42;100.00
13968;BME280;39536;52.198;9.920;2023-12-14T01:29:19;99975.38;;;6.41;100.00
13968;BME280;39536;52.198;9.920;2023-12-14T01:31:47;99980.41;;;6.47;100.00
13968;BME280;39536;52.198;9.920;2023-12-14T01:34:13;99981.53;;;6.37;100.00
13968;BME280;39536;52.198;9.920;2023-12-14T01:36:41;99988.59;;;6.30;100.00
13968;BME280;39536;52.198;9.920;2023-12-14T01:39:07;99996.66;;;6.18;100.00
13968;BME280;39536;52.198;9.920;2023-12-14T01:41:34;99996.72;;;5.74;100.00
13968;BME280;39536;52.198;9.920;2023-12-14T01:44:01;99995.97;;;5.26;100.00
13968;BME280;39536;52.198;9.920;2023-12-14T01:46:27;100013.28;;;5.22;100.00
13968;BME280;39536;52.198;9.920;2023-12-14T01:48:55;100013.38;;;5.18;100.00
13968;BME280;39536;52.198;9.920;2023-12-14T01:51:21;100011.41;;;5.30;100.00
13968;BME280;39536;52.198;9.920;2023-12-14T01:53:48;100011.47;;;5.26;100.00
13968;BME280;39536;52.198;9.920;2023-12-14T01:56:14;100011.22;;;5.40;100.00
13968;BME280;39536;52.198;9.920;2023-12-14T01:58:41;100019.50;;;5.55;100.00
13968;BME280;39536;52.198;9.920;2023-12-14T02:01:12;100013.13;;;5.72;100.00
13968;BME280;39536;52.198;9.920;2023-12-14T02:03:44;100013.78;;;5.82;100.00
13968;BME280;39536;52.198;9.920;2023-12-14T02:06:12;100027.50;;;5.85;100.00
13968;BME280;39536;52.198;9.920;2023-12-14T02:08:38;100034.38;;;5.86;100.00
13968;BME280;39536;52.198;9.920;2023-12-14T02:11:05;100039.56;;;5.85;100.00
13968;BME280;39536;52.198;9.920;2023-12-14T02:13:32;100043.03;;;5.84;100.00
13968;BME280;39536;52.198;9.920;2023-12-14T02:15:58;100047.56;;;5.72;100.00
13968;BME280;39536;52.198;9.920;2023-12-14T02:18:25;100054.47;;;5.73;100.00
13968;BME280;39536;52.198;9.920;2023-12-14T02:20:52;100061.25;;;5.77;100.00
13968;BME280;39536;52.198;9.920;2023-12-14T02:23:19;100064.91;;;5.67;100.00
13968;BME280;39536;52.198;9.920;2023-12-14T02:25:46;100061.16;;;5.39;100.00
13968;BME280;39536;52.198;9.920;2023-12-14T02:28:13;100067.13;;;5.42;100.00
13968;BME280;39536;52.198;9.920;2023-12-14T02:30:39;100068.94;;;5.37;100.00
13968;BME280;39536;52.198;9.920;2023-12-14T02:33:06;100070.13;;;5.19;100.00
13968;BME280;39536;52.198;9.920;2023-12-14T02:35:32;100078.66;;;5.24;100.00
13968;BME280;39536;52.198;9.920;2023-12-14T02:37:59;100067.88;;;5.47;100.00
13968;BME280;39536;52.198;9.920;2023-12-14T02:40:27;100074.00;;;5.43;100.00
13968;BME280;39536;52.198;9.920;2023-12-14T02:42:53;100071.13;;;5.59;100.00
13968;BME280;39536;52.198;9.920;2023-12-14T02:45:20;100069.84;;;5.78;100.00
13968;BME280;39536;52.198;9.920;2023-12-14T02:47:46;100077.53;;;5.83;100.00
13968;BME280;39536;52.198;9.920;2023-12-14T02:50:15;100087.75;;;5.89;100.00
13968;BME280;39536;52.198;9.920;2023-12-14T02:52:41;100081.69;;;5.88;100.00
13968;BME280;39536;52.198;9.920;2023-12-14T02:55:08;100087.94;;;5.78;100.00
13968;BME280;39536;52.198;9.920;2023-12-14T02:57:36;100097.31;;;5.39;100.00
13968;BME280;39536;52.198;9.920;2023-12-14T03:00:03;100101.00;;;5.27;100.00
13968;BME280;39536;52.198;9.920;2023-12-14T03:02:30;100112.22;;;5.23;100.00
13968;BME280;39536;52.198;9.920;2023-12-14T03:04:57;100114.44;;;4.95;100.00
13968;BME280;39536;52.198;9.920;2023-12-14T03:07:23;100112.53;;;5.06;100.00
13968;BME280;39536;52.198;9.920;2023-12-14T03:09:50;100122.00;;;5.05;100.00
13968;BME280;39536;52.198;9.920;2023-12-14T03:12:16;100114.47;;;4.92;100.00
13968;BME280;39536;52.198;9.920;2023-12-14T03:14:44;100125.59;;;4.97;100.00
13968;BME280;39536;52.198;9.920;2023-12-14T03:17:11;100129.97;;;4.92;100.00
13968;BME280;39536;52.198;9.920;2023-12-14T03:19:39;100132.63;;;4.85;100.00
13968;BME280;39536;52.198;9.920;2023-12-14T03:22:06;100130.81;;;4.94;100.00
13968;BME280;39536;52.198;9.920;2023-12-14T03:24:32;100132.44;;;4.98;100.00
13968;BME280;39536;52.198;9.920;2023-12-14T03:26:59;100125.34;;;5.12;100.00
13968;BME280;39536;52.198;9.920;2023-12-14T03:29:26;100124.34;;;5.21;100.00
13968;BME280;39536;52.198;9.920;2023-12-14T03:31:54;100131.97;;;5.27;100.00
13968;BME280;39536;52.198;9.920;2023-12-14T03:34:21;100139.19;;;5.06;100.00
13968;BME280;39536;52.198;9.920;2023-12-14T03:36:47;100144.41;;;5.05;100.00
13968;BME280;39536;52.198;9.920;2023-12-14T03:39:14;100146.28;;;4.92;100.00
13968;BME280;39536;52.198;9.920;2023-12-14T03:41:41;100146.44;;;4.84;100.00
13968;BME280;39536;52.198;9.920;2023-12-14T03:44:08;100149.66;;;4.99;100.00
13968;BME280;39536;52.198;9.920;2023-12-14T03:46:35;100158.44;;;4.87;100.00
13968;BME280;39536;52.198;9.920;2023-12-14T03:49:02;100159.38;;;4.83;100.00
13968;BME280;39536;52.198;9.920;2023-12-14T03:51:29;100168.13;;;4.71;100.00
13968;BME280;39536;52.198;9.920;2023-12-14T03:53:56;100174.09;;;4.73;100.00
13968;BME280;39536;52.198;9.920;2023-12-14T03:56:22;100179.88;;;4.91;100.00
13968;BME280;39536;52.198;9.920;2023-12-14T03:58:49;100186.66;;;4.98;100.00
13968;BME280;39536;52.198;9.920;2023-12-14T04:01:16;100181.59;;;4.92;100.00
13968;BME280;39536;52.198;9.920;2023-12-14T04:03:43;100190.16;;;4.92;100.00
13968;BME280;39536;52.198;9.920;2023-12-14T04:06:12;100184.06;;;4.98;100.00
13968;BME280;39536;52.198;9.920;2023-12-14T04:08:39;100185.69;;;5.05;100.00
13968;BME280;39536;52.198;9.920;2023-12-14T04:11:06;100180.63;;;4.99;100.00
13968;BME280;39536;52.198;9.920;2023-12-14T04:13:32;100173.50;;;5.15;100.00
13968;BME280;39536;52.198;9.920;2023-12-14T04:15:59;100186.16;;;5.28;100.00
13968;BME280;39536;52.198;9.920;2023-12-14T04:18:26;100196.44;;;5.31;100.00
13968;BME280;39536;52.198;9.920;2023-12-14T04:20:53;100203.25;;;5.36;100.00
13968;BME280;39536;52.198;9.920;2023-12-14T04:23:21;100209.44;;;5.27;100.00
13968;BME280;39536;52.198;9.920;2023-12-14T04:25:48;100213.91;;;5.17;100.00
13968;BME280;39536;52.198;9.920;2023-12-14T04:28:14;100219.16;;;5.09;100.00
13968;BME280;39536;52.198;9.920;2023-12-14T04:30:41;100222.41;;;5.24;100.00
13968;BME280;39536;52.198;9.920;2023-12-14T04:33:07;100225.03;;;5.21;100.00
13968;BME280;39536;52.198;9.920;2023-12-14T04:35:34;100235.41;;;5.18;100.00
13968;BME280;39536;52.198;9.920;2023-12-14T04:38:01;100236.22;;;5.21;100.00
13968;BME280;39536;52.198;9.920;2023-12-14T04:40:29;100240.56;;;5.16;100.00
13968;BME280;39536;52.198;9.920;2023-12-14T04:42:56;100238.69;;;5.27;100.00
13968;BME280;39536;52.198;9.920;2023-12-14T04:45:22;100247.25;;;5.31;100.00
13968;BME280;39536;52.198;9.920;2023-12-14T04:47:49;100255.78;;;5.36;100.00
13968;BME280;39536;52.198;9.920;2023-12-14T04:50:16;100258.38;;;5.35;100.00
13968;BME280;39536;52.198;9.920;2023-12-14T04:52:42;100256.97;;;5.15;100.00
13968;BME280;39536;52.198;9.920;2023-12-14T04:55:09;100257.06;;;5.07;100.00
13968;BME280;39536;52.198;9.920;2023-12-14T04:57:37;100268.88;;;5.22;100.00
13968;BME280;39536;52.198;9.920;2023-12-14T05:00:04;100261.31;;;5.10;100.00
13968;BME280;39536;52.198;9.920;2023-12-14T05:02:32;100269.41;;;4.87;100.00
13968;BME280;39536;52.198;9.920;2023-12-14T05:04:59;100281.41;;;4.88;100.00
13968;BME280;39536;52.198;9.920;2023-12-14T05:07:26;100279.00;;;4.77;100.00
13968;BME280;39536;52.198;9.920;2023-12-14T05:09:53;100272.78;;;4.91;100.00
13968;BME280;39536;52.198;9.920;2023-12-14T05:12:20;100274.75;;;4.72;100.00
13968;BME280;39536;52.198;9.920;2023-12-14T05:14:47;100285.94;;;4.72;100.00
13968;BME280;39536;52.198;9.920;2023-12-14T05:17:14;100292.88;;;4.67;100.00
13968;BME280;39536;52.198;9.920;2023-12-14T05:19:41;100293.94;;;4.52;100.00
13968;BME280;39536;52.198;9.920;2023-12-14T05:22:07;100297.31;;;4.56;100.00
13968;BME280;39536;52.198;9.920;2023-12-14T05:24:34;100305.75;;;4.67;100.00
13968;BME280;39536;52.198;9.920;2023-12-14T05:27:00;100313.44;;;4.73;100.00
13968;BME280;39536;52.198;9.920;2023-12-14T05:29:27;100317.19;;;4.48;100.00
13968;BME280;39536;52.198;9.920;2023-12-14T05:31:55;100325.09;;;4.29;100.00
13968;BME280;39536;52.198;9.920;2023-12-14T05:34:21;100326.06;;;4.19;100.00
13968;BME280;39536;52.198;9.920;2023-12-14T05:36:48;100333.75;;;4.25;100.00
13968;BME280;39536;52.198;9.920;2023-12-14T05:39:14;100335.50;;;4.22;100.00
13968;BME280;39536;52.198;9.920;2023-12-14T05:41:41;100343.16;;;4.31;100.00
13968;BME280;39536;52.198;9.920;2023-12-14T05:44:08;100344.94;;;4.24;100.00
13968;BME280;39536;52.198;9.920;2023-12-14T05:46:34;100347.56;;;4.21;100.00
13968;BME280;39536;52.198;9.920;2023-12-14T05:49:02;100352.66;;;4.26;100.00
13968;BME280;39536;52.198;9.920;2023-12-14T05:51:29;100350.19;;;4.13;100.00
13968;BME280;39536;52.198;9.920;2023-12-14T05:53:56;100348.41;;;4.22;100.00
13968;BME280;39536;52.198;9.920;2023-12-14T05:56:24;100353.53;;;4.23;100.00
13968;BME280;39536;52.198;9.920;2023-12-14T05:58:51;100358.66;;;4.26;100.00
13968;BME280;39536;52.198;9.920;2023-12-14T06:01:17;100361.13;;;4.35;100.00
13968;BME280;39536;52.198;9.920;2023-12-14T06:03:44;100356.66;;;4.56;100.00
13968;BME280;39536;52.198;9.920;2023-12-14T06:06:12;100361.81;;;4.56;100.00
13968;BME280;39536;52.198;9.920;2023-12-14T06:08:39;100365.88;;;4.75;100.00
13968;BME280;39536;52.198;9.920;2023-12-14T06:11:06;100377.22;;;4.62;100.00
13968;BME280;39536;52.198;9.920;2023-12-14T06:13:33;100384.13;;;4.58;100.00
13968;BME280;39536;52.198;9.920;2023-12-14T06:15:59;100385.66;;;4.73;100.00
13968;BME280;39536;52.198;9.920;2023-12-14T06:18:26;100383.78;;;4.88;100.00
13968;BME280;39536;52.198;9.920;2023-12-14T06:20:53;100392.53;;;4.77;100.00
13968;BME280;39536;52.198;9.920;2023-12-14T06:23:21;100388.19;;;4.79;100.00
13968;BME280;39536;52.198;9.920;2023-12-14T06:25:47;100390.97;;;4.62;100.00
13968;BME280;39536;52.198;9.920;2023-12-14T06:28:14;100385.88;;;4.56;100.00
13968;BME280;39536;52.198;9.920;2023-12-14T06:30:40;100382.53;;;4.47;100.00
13968;BME280;39536;52.198;9.920;2023-12-14T06:33:07;100390.19;;;4.54;100.00
13968;BME280;39536;52.198;9.920;2023-12-14T06:35:33;100382.53;;;4.47;100.00
13968;BME280;39536;52.198;9.920;2023-12-14T06:38:00;100393.63;;;4.53;100.00
13968;BME280;39536;52.198;9.920;2023-12-14T06:40:28;100396.19;;;4.56;100.00
13968;BME280;39536;52.198;9.920;2023-12-14T06:42:54;100404.72;;;4.65;100.00
13968;BME280;39536;52.198;9.920;2023-12-14T06:45:24;100412.34;;;4.74;100.00
13968;BME280;39536;52.198;9.920;2023-12-14T06:47:50;100417.53;;;4.69;100.00
13968;BME280;39536;52.198;9.920;2023-12-14T06:50:17;100417.66;;;4.58;100.00
13968;BME280;39536;52.198;9.920;2023-12-14T06:52:44;100423.59;;;4.68;100.00
13968;BME280;39536;52.198;9.920;2023-12-14T06:55:10;100416.59;;;4.76;100.00
13968;BME280;39536;52.198;9.920;2023-12-14T06:57:39;100426.09;;;4.73;100.00
13968;BME280;39536;52.198;9.920;2023-12-14T07:00:07;100431.28;;;4.70;100.00
13968;BME280;39536;52.198;9.920;2023-12-14T07:02:33;100435.50;;;4.78;100.00
13968;BME280;39536;52.198;9.920;2023-12-14T07:05:00;100441.50;;;4.82;100.00
13968;BME280;39536;52.198;9.920;2023-12-14T07:07:27;100447.50;;;4.82;100.00
13968;BME280;39536;52.198;9.920;2023-12-14T07:09:53;100455.97;;;4.97;100.00
13968;BME280;39536;52.198;9.920;2023-12-14T07:12:20;100468.09;;;4.89;100.00
13968;BME280;39536;52.198;9.920;2023-12-14T07:14:48;100469.06;;;4.78;100.00
13968;BME280;39536;52.198;9.920;2023-12-14T07:17:14;100469.00;;;4.86;100.00
13968;BME280;39536;52.198;9.920;2023-12-14T07:19:41;100472.38;;;4.93;100.00
13968;BME280;39536;52.198;9.920;2023-12-14T07:22:07;100482.66;;;4.94;100.00
13968;BME280;39536;52.198;9.920;2023-12-14T07:24:34;100473.16;;;4.98;100.00
13968;BME280;39536;52.198;9.920;2023-12-14T07:27:00;100483.38;;;5.08;100.00
13968;BME280;39536;52.198;9.920;2023-12-14T07:29:27;100482.53;;;5.06;100.00
13968;BME280;39536;52.198;9.920;2023-12-14T07:31:55;100485.88;;;5.13;100.00
13968;BME280;39536;52.198;9.920;2023-12-14T07:34:22;100492.00;;;5.04;100.00
13968;BME280;39536;52.198;9.920;2023-12-14T07:36:50;100496.41;;;4.95;100.00
13968;BME280;39536;52.198;9.920;2023-12-14T07:39:16;100499.06;;;4.89;100.00
13968;BME280;39536;52.198;9.920;2023-12-14T07:41:44;100505.94;;;4.90;100.00
13968;BME280;39536;52.198;9.920;2023-12-14T07:44:10;100518.84;;;4.88;100.00
13968;BME280;39536;52.198;9.920;2023-12-14T07:46:37;100517.22;;;4.78;100.00
13968;BME280;39536;52.198;9.920;2023-12-14T07:49:08;100522.34;;;4.84;100.00
13968;BME280;39536;52.198;9.920;2023-12-14T07:51:34;100520.63;;;4.83;100.00
13968;BME280;39536;52.198;9.920;2023-12-14T07:54:01;100530.00;;;4.92;100.00
13968;BME280;39536;52.198;9.920;2023-12-14T07:56:28;100541.25;;;4.84;100.00
13968;BME280;39536;52.198;9.920;2023-12-14T07:58:55;100539.47;;;4.93;100.00
13968;BME280;39536;52.198;9.920;2023-12-14T08:01:22;100543.00;;;4.81;100.00
13968;BME280;39536;52.198;9.920;2023-12-14T08:03:48;100549.03;;;4.78;100.00
13968;BME280;39536;52.198;9.920;2023-12-14T08:06:16;100561.00;;;4.90;100.00
13968;BME280;39536;52.198;9.920;2023-12-14T08:08:43;100566.19;;;4.85;100.00
13968;BME280;39536;52.198;9.920;2023-12-14T08:11:09;100563.72;;;4.72;100.00
13968;BME280;39536;52.198;9.920;2023-12-14T08:13:36;100573.94;;;4.82;100.00
13968;BME280;39536;52.198;9.920;2023-12-14T08:16:03;100579.09;;;4.85;100.00
13968;BME280;39536;52.198;9.920;2023-12-14T08:18:29;100570.56;;;4.77;100.00
13968;BME280;39536;52.198;9.920;2023-12-14T08:20:56;100574.97;;;4.65;100.00
13968;BME280;39536;52.198;9.920;2023-12-14T08:23:24;100586.94;;;4.70;100.00
13968;BME280;39536;52.198;9.920;2023-12-14T08:25:52;100589.50;;;4.73;100.00
13968;BME280;39536;52.198;9.920;2023-12-14T08:28:22;100594.84;;;4.52;100.00
13968;BME280;39536;52.198;9.920;2023-12-14T08:30:48;100606.94;;;4.44;100.00
13968;BME280;39536;52.198;9.920;2023-12-14T08:33:15;100612.91;;;4.49;100.00
13968;BME280;39536;52.198;9.920;2023-12-14T08:35:41;100614.63;;;4.45;100.00
13968;BME280;39536;52.198;9.920;2023-12-14T08:38:08;100617.22;;;4.47;100.00
13968;BME280;39536;52.198;9.920;2023-12-14T08:40:37;100622.34;;;4.51;100.00
13968;BME280;39536;52.198;9.920;2023-12-14T08:43:04;100620.63;;;4.53;100.00
13968;BME280;39536;52.198;9.920;2023-12-14T08:45:30;100627.44;;;4.60;100.00
13968;BME280;39536;52.198;9.920;2023-12-14T08:47:57;100635.19;;;4.62;100.00
13968;BME280;39536;52.198;9.920;2023-12-14T08:50:24;100637.75;;;4.65;100.00
13968;BME280;39536;52.198;9.920;2023-12-14T08:52:51;100636.88;;;4.63;100.00
13968;BME280;39536;52.198;9.920;2023-12-14T08:55:18;100647.28;;;4.55;100.00
13968;BME280;39536;52.198;9.920;2023-12-14T08:57:46;100653.22;;;4.63;100.00
13968;BME280;39536;52.198;9.920;2023-12-14T09:00:13;100666.88;;;4.81;100.00
13968;BME280;39536;52.198;9.920;2023-12-14T09:02:41;100666.91;;;4.75;100.00
13968;BME280;39536;52.198;9.920;2023-12-14T09:05:09;100667.91;;;4.52;100.00
13968;BME280;39536;52.198;9.920;2023-12-14T09:07:35;100683.44;;;4.43;100.00
13968;BME280;39536;52.198;9.920;2023-12-14T09:10:02;100692.84;;;4.50;100.00
13968;BME280;39536;52.198;9.920;2023-12-14T09:12:29;100695.31;;;4.72;100.00
13968;BME280;39536;52.198;9.920;2023-12-14T09:14:57;100694.50;;;4.60;100.00
13968;BME280;39536;52.198;9.920;2023-12-14T09:17:23;100697.13;;;4.56;100.00
13968;BME280;39536;52.198;9.920;2023-12-14T09:19:50;100698.81;;;4.63;100.00
13968;BME280;39536;52.198;9.920;2023-12-14T09:22:16;100703.91;;;4.74;100.00
13968;BME280;39536;52.198;9.920;2023-12-14T09:24:43;100709.03;;;4.78;100.00
13968;BME280;39536;52.198;9.920;2023-12-14T09:27:10;100714.19;;;4.81;100.00
13968;BME280;39536;52.198;9.920;2023-12-14T09:29:37;100718.50;;;4.73;100.00
13968;BME280;39536;52.198;9.920;2023-12-14T09:32:07;100728.81;;;4.81;100.00
13968;BME280;39536;52.198;9.920;2023-12-14T09:34:34;100732.34;;;4.63;100.00
13968;BME280;39536;52.198;9.920;2023-12-14T09:37:00;100740.00;;;4.75;100.00
13968;BME280;39536;52.198;9.920;2023-12-14T09:39:27;100737.41;;;4.86;100.00
13968;BME280;39536;52.198;9.920;2023-12-14T09:42:01;100734.78;;;4.91;100.00
13968;BME280;39536;52.198;9.920;2023-12-14T09:44:29;100740.00;;;4.75;100.00
13968;BME280;39536;52.198;9.920;2023-12-14T09:46:57;100744.34;;;4.72;100.00
13968;BME280;39536;52.198;9.920;2023-12-14T09:49:26;100742.53;;;4.88;100.00
13968;BME280;39536;52.198;9.920;2023-12-14T09:51:54;100742.59;;;4.78;100.00
13968;BME280;39536;52.198;9.920;2023-12-14T09:54:21;100745.22;;;4.74;100.00
13968;BME280;39536;52.198;9.920;2023-12-14T09:56:48;100740.91;;;4.70;100.00
13968;BME280;39536;52.198;9.920;2023-12-14T09:59:15;100749.44;;;4.82;100.00
13968;BME280;39536;52.198;9.920;2023-12-14T10:01:42;100745.97;;;4.85;100.00
13968;BME280;39536;52.198;9.920;2023-12-14T10:04:09;100752.91;;;4.80;100.00
13968;BME280;39536;52.198;9.920;2023-12-14T10:06:38;100751.13;;;4.90;100.00
13968;BME280;39536;52.198;9.920;2023-12-14T10:09:05;100752.13;;;4.66;100.00
13968;BME280;39536;52.198;9.920;2023-12-14T10:11:34;100749.44;;;4.82;100.00
13968;BME280;39536;52.198;9.920;2023-12-14T10:14:01;100768.34;;;4.88;100.00
13968;BME280;39536;52.198;9.920;2023-12-14T10:16:30;100764.09;;;4.76;100.00
13968;BME280;39536;52.198;9.920;2023-12-14T10:18:57;100772.59;;;4.92;100.00
13968;BME280;39536;52.198;9.920;2023-12-14T10:21:24;100773.44;;;4.98;100.00
13968;BME280;39536;52.198;9.920;2023-12-14T10:23:52;100776.00;;;5.00;100.00
13968;BME280;39536;52.198;9.920;2023-12-14T10:26:22;100782.09;;;4.91;100.00
13968;BME280;39536;52.198;9.920;2023-12-14T10:28:49;100781.22;;;4.91;100.00
13968;BME280;39536;52.198;9.920;2023-12-14T10:31:16;100779.56;;;4.80;100.00
13968;BME280;39536;52.198;9.920;2023-12-14T10:33:43;100788.09;;;4.92;100.00
13968;BME280;39536;52.198;9.920;2023-12-14T10:36:12;100793.28;;;4.87;100.00
13968;BME280;39536;52.198;9.920;2023-12-14T10:38:39;100804.53;;;4.80;100.00
13968;BME280;39536;52.198;9.920;2023-12-14T10:41:08;100798.41;;;4.92;100.00
13968;BME280;39536;52.198;9.920;2023-12-14T10:43:36;100798.41;;;4.96;100.00
13968;BME280;39536;52.198;9.920;2023-12-14T10:46:04;100807.88;;;4.91;100.00
13968;BME280;39536;52.198;9.920;2023-12-14T10:48:31;100810.47;;;4.93;100.00
13968;BME280;39536;52.198;9.920;2023-12-14T10:51:01;100804.59;;;4.60;100.00
13968;BME280;39536;52.198;9.920;2023-12-14T10:53:28;100811.41;;;4.76;100.00
13968;BME280;39536;52.198;9.920;2023-12-14T10:55:56;100808.00;;;4.70;100.00
13968;BME280;39536;52.198;9.920;2023-12-14T10:58:27;100810.56;;;4.70;100.00
13968;BME280;39536;52.198;9.920;2023-12-14T11:00:59;100816.53;;;4.79;100.00
13968;BME280;39536;52.198;9.920;2023-12-14T11:03:26;100819.13;;;4.81;100.00
13968;BME280;39536;52.198;9.920;2023-12-14T11:05:53;100822.56;;;4.83;100.00
13968;BME280;39536;52.198;9.920;2023-12-14T11:08:19;100825.16;;;4.83;100.00
13968;BME280;39536;52.198;9.920;2023-12-14T11:10:53;100829.44;;;4.87;100.00
13968;BME280;39536;52.198;9.920;2023-12-14T11:13:21;100831.16;;;4.82;100.00
13968;BME280;39536;52.198;9.920;2023-12-14T11:15:51;100832.88;;;4.86;100.00
13968;BME280;39536;52.198;9.920;2023-12-14T11:18:27;100837.22;;;4.72;100.00
13968;BME280;39536;52.198;9.920;2023-12-14T11:20:55;100842.34;;;4.82;100.00
13968;BME280;39536;52.198;9.920;2023-12-14T11:23:33;100846.66;;;4.80;100.00
13968;BME280;39536;52.198;9.920;2023-12-14T11:26:02;100856.94;;;4.96;100.00
13968;BME280;39536;52.198;9.920;2023-12-14T11:28:31;100855.16;;;5.01;100.00
13968;BME280;39536;52.198;9.920;2023-12-14T11:31:00;100856.94;;;4.93;100.00
13968;BME280;39536;52.198;9.920;2023-12-14T11:33:27;100859.56;;;4.76;100.00
13968;BME280;39536;52.198;9.920;2023-12-14T11:35:54;100865.53;;;4.89;100.00
13968;BME280;39536;52.198;9.920;2023-12-14T11:38:21;100860.38;;;4.90;100.00
13968;BME280;39536;52.198;9.920;2023-12-14T11:40:49;100865.50;;;4.98;100.00
13968;BME280;39536;52.198;9.920;2023-12-14T11:43:16;100868.91;;;5.07;100.00
13968;BME280;39536;52.198;9.920;2023-12-14T11:45:45;100869.78;;;5.06;100.00
13968;BME280;39536;52.198;9.920;2023-12-14T11:48:13;100875.75;;;5.18;100.00
13968;BME280;39536;52.198;9.920;2023-12-14T11:50:41;100868.81;;;5.27;100.00
13968;BME280;39536;52.198;9.920;2023-12-14T11:53:08;100874.81;;;5.26;100.00
13968;BME280;39536;52.198;9.920;2023-12-14T11:55:36;100881.69;;;5.33;100.00
13968;BME280;39536;52.198;9.920;2023-12-14T11:58:03;100881.69;;;5.37;100.00
13968;BME280;39536;52.198;9.920;2023-12-14T12:00:31;100882.59;;;5.28;100.00
13968;BME280;39536;52.198;9.920;2023-12-14T12:03:09;100882.56;;;5.29;100.00
13968;BME280;39536;52.198;9.920;2023-12-14T12:05:37;100886.03;;;5.27;100.00
13968;BME280;39536;52.198;9.920;2023-12-14T12:08:05;100884.38;;;5.15;100.00
13968;BME280;39536;52.198;9.920;2023-12-14T12:10:31;100880.06;;;5.16;100.00
13968;BME280;39536;52.198;9.920;2023-12-14T12:12:59;100885.28;;;5.05;100.00
13968;BME280;39536;52.198;9.920;2023-12-14T12:15:25;100876.72;;;4.92;100.00
13968;BME280;39536;52.198;9.920;2023-12-14T12:17:52;100887.09;;;4.75;100.00
13968;BME280;39536;52.198;9.920;2023-12-14T12:20:18;100895.69;;;4.90;100.00
13968;BME280;39536;52.198;9.920;2023-12-14T12:22:46;100895.69;;;4.90;100.00
13968;BME280;39536;52.198;9.920;2023-12-14T12:25:13;100896.56;;;4.76;100.00
13968;BME280;39536;52.198;9.920;2023-12-14T12:27:40;100893.94;;;4.85;100.00
13968;BME280;39536;52.198;9.920;2023-12-14T12:30:07;100899.13;;;4.87;100.00
13968;BME280;39536;52.198;9.920;2023-12-14T12:32:34;100900.84;;;4.82;100.00
13968;BME280;39536;52.198;9.920;2023-12-14T12:35:01;100909.44;;;4.79;100.00
13968;BME280;39536;52.198;9.920;2023-12-14T12:37:27;100903.41;;;4.96;100.00
13968;BME280;39536;52.198;9.920;2023-12-14T12:39:55;100909.41;;;4.92;100.00
13968;BME280;39536;52.198;9.920;2023-12-14T12:42:22;100910.28;;;4.91;100.00
13968;BME280;39536;52.198;9.920;2023-12-14T12:44:48;100905.13;;;4.94;100.00
13968;BME280;39536;52.198;9.920;2023-12-14T12:47:15;100907.69;;;4.97;100.00
13968;BME280;39536;52.198;9.920;2023-12-14T12:49:41;100917.97;;;5.04;100.00